createdAt,value
2022-09-24T00:01:57.778Z,9.09
2022-09-24T00:07:25.167Z,9.06
2022-09-24T00:12:49.242Z,9.11
2022-09-24T00:18:14.885Z,9.03
2022-09-24T00:23:40.954Z,8.91
2022-09-24T00:29:08.166Z,8.75
2022-09-24T00:34:32.552Z,8.72
2022-09-24T00:39:58.915Z,8.60
2022-09-24T00:45:25.780Z,8.49
2022-09-24T00:50:50.269Z,8.40
2022-09-24T00:56:17.958Z,8.34
2022-09-24T01:01:43.225Z,8.35
2022-09-24T01:07:08.163Z,8.30
2022-09-24T01:12:43.088Z,8.26
2022-09-24T01:18:15.155Z,8.01
2022-09-24T01:24:31.637Z,7.98
2022-09-24T01:30:03.867Z,7.81
2022-09-24T01:35:33.081Z,7.68
2022-09-24T01:41:03.295Z,7.67
2022-09-24T01:46:29.634Z,7.58
2022-09-24T01:52:01.474Z,7.55
2022-09-24T01:57:33.813Z,7.53
2022-09-24T02:03:06.957Z,7.49
2022-09-24T02:08:38.117Z,7.39
2022-09-24T02:14:10.679Z,7.32
2022-09-24T02:19:39.681Z,7.36
2022-09-24T02:25:10.299Z,7.26
2022-09-24T02:30:42.067Z,7.22
2022-09-24T02:36:09.177Z,7.28
2022-09-24T02:41:35.416Z,7.18
2022-09-24T02:47:00.087Z,7.20
2022-09-24T02:52:25.589Z,7.20
2022-09-24T02:57:50.100Z,7.13
2022-09-24T03:03:15.040Z,7.20
2022-09-24T03:08:41.614Z,7.23
2022-09-24T03:14:07.243Z,7.09
2022-09-24T03:19:35.505Z,6.97
2022-09-24T03:25:03.283Z,6.94
2022-09-24T03:30:45.499Z,6.96
2022-09-24T03:36:12.416Z,6.95
2022-09-24T03:41:39.837Z,7.03
2022-09-24T03:47:07.654Z,7.16
2022-09-24T03:52:33.090Z,7.29
2022-09-24T03:57:58.856Z,7.25
2022-09-24T04:03:24.367Z,7.29
2022-09-24T04:08:49.541Z,7.33
2022-09-24T04:14:17.940Z,7.40
2022-09-24T04:19:43.989Z,7.44
2022-09-24T04:25:14.619Z,7.66
2022-09-24T04:30:40.488Z,7.74
2022-09-24T04:36:05.950Z,7.64
2022-09-24T04:41:30.293Z,7.53
2022-09-24T04:47:03.132Z,7.78
2022-09-24T04:52:29.772Z,7.77
2022-09-24T04:57:57.244Z,8.74
2022-09-24T05:03:22.989Z,8.94
2022-09-24T05:08:47.388Z,9.70
2022-09-24T05:14:11.475Z,10.72
2022-09-24T05:19:37.182Z,12.27
2022-09-24T05:25:02.480Z,13.72
2022-09-24T05:30:28.839Z,13.46
2022-09-24T05:35:58.742Z,13.78
2022-09-24T05:41:23.347Z,14.94
2022-09-24T05:46:49.378Z,15.57
2022-09-24T05:52:15.782Z,13.36
2022-09-24T05:57:41.312Z,13.82
2022-09-24T06:03:08.056Z,12.88
2022-09-24T06:08:38.428Z,12.88
2022-09-24T06:14:04.568Z,12.46
2022-09-24T06:19:29.638Z,11.90
2022-09-24T06:24:56.147Z,12.84
2022-09-24T06:30:20.882Z,11.36
2022-09-24T06:35:45.665Z,10.00
2022-09-24T06:41:12.989Z,9.49
2022-09-24T06:46:41.386Z,9.32
2022-09-24T06:52:05.957Z,9.41
2022-09-24T06:57:31.612Z,10.22
2022-09-24T07:02:56.147Z,10.08
2022-09-24T07:08:21.437Z,10.64
2022-09-24T07:13:47.627Z,10.09
2022-09-24T07:19:14.110Z,9.79
2022-09-24T07:24:38.721Z,9.88
2022-09-24T07:30:09.721Z,9.98
2022-09-24T07:35:35.514Z,9.63
2022-09-24T07:41:00.112Z,9.64
2022-09-24T07:46:26.520Z,9.64
2022-09-24T07:51:51.608Z,9.68
2022-09-24T07:57:17.262Z,9.91
2022-09-24T08:02:43.045Z,9.90
2022-09-24T08:08:07.409Z,9.91
2022-09-24T08:13:31.339Z,10.34
2022-09-24T08:18:56.892Z,10.66
2022-09-24T08:24:21.386Z,10.88
2022-09-24T08:29:51.051Z,10.63
2022-09-24T08:35:17.439Z,10.88
2022-09-24T08:40:47.099Z,11.79
2022-09-24T08:46:35.436Z,12.34
2022-09-24T08:52:14.337Z,12.20
2022-09-24T08:57:48.610Z,11.97
2022-09-24T09:03:19.358Z,11.80
2022-09-24T09:09:06.756Z,12.25
2022-09-24T09:14:42.751Z,12.43
2022-09-24T09:20:12.781Z,13.03
2022-09-24T09:25:38.055Z,13.46
2022-09-24T09:31:09.468Z,12.97
2022-09-24T09:36:45.301Z,13.46
2022-09-24T09:42:26.994Z,14.00
2022-09-24T09:47:56.440Z,14.32
2022-09-24T09:53:26.295Z,14.19
2022-09-24T09:58:55.893Z,14.88
2022-09-24T10:04:29.995Z,15.22
2022-09-24T10:10:18.193Z,14.89
2022-09-24T10:15:53.454Z,14.46
2022-09-24T10:21:30.849Z,12.84
2022-09-24T10:26:55.445Z,12.01
2022-09-24T10:32:23.077Z,11.62
2022-09-24T10:37:52.951Z,11.01
2022-09-24T10:43:20.577Z,11.33
2022-09-24T10:48:49.831Z,11.63
2022-09-24T10:54:35.396Z,11.92
2022-09-24T11:00:12.719Z,11.51
2022-09-24T11:05:46.249Z,11.75
2022-09-24T11:11:26.220Z,11.59
2022-09-24T11:17:19.707Z,11.57
2022-09-24T11:23:27.514Z,11.22
2022-09-24T11:29:10.489Z,10.70
2022-09-24T11:34:52.945Z,10.57
2022-09-24T11:40:31.133Z,10.65
2022-09-24T11:46:12.154Z,10.88
2022-09-24T11:51:50.762Z,11.13
2022-09-24T11:57:23.186Z,11.34
2022-09-24T12:02:52.332Z,11.74
2022-09-24T12:08:21.609Z,12.23
2022-09-24T12:13:52.634Z,12.79
2022-09-24T12:19:23.398Z,12.61
2022-09-24T12:24:53.139Z,12.96
2022-09-24T12:30:42.808Z,12.63
2022-09-24T12:36:13.113Z,12.77
2022-09-24T12:41:40.296Z,12.36
2022-09-24T12:47:07.274Z,12.10
2022-09-24T12:52:35.523Z,11.80
2022-09-24T12:58:03.183Z,12.55
2022-09-24T13:03:35.106Z,13.34
2022-09-24T13:08:59.527Z,14.18
2022-09-24T13:14:29.656Z,14.61
2022-09-24T13:20:00.440Z,14.17
2022-09-24T13:25:26.778Z,14.07
2022-09-24T13:30:54.979Z,14.53
2022-09-24T13:36:30.024Z,14.73
2022-09-24T13:42:02.225Z,14.48
2022-09-24T13:47:31.807Z,13.86
2022-09-24T13:53:04.685Z,13.56
2022-09-24T13:58:31.868Z,13.15
2022-09-24T14:04:00.128Z,13.07
2022-09-24T14:09:31.075Z,13.54
2022-09-24T14:14:58.418Z,14.13
2022-09-24T14:20:23.946Z,14.06
2022-09-24T14:25:52.361Z,14.18
2022-09-24T14:31:16.949Z,14.30
2022-09-24T14:36:44.607Z,14.06
2022-09-24T14:42:18.681Z,13.94
2022-09-24T14:47:45.273Z,13.94
2022-09-24T14:53:14.996Z,13.83
2022-09-24T14:58:41.061Z,13.71
2022-09-24T15:04:08.909Z,13.34
2022-09-24T15:09:33.550Z,13.03
2022-09-24T15:15:01.436Z,12.69
2022-09-24T15:20:25.555Z,12.54
2022-09-24T15:25:50.477Z,12.54
2022-09-24T15:31:17.501Z,12.43
2022-09-24T15:36:42.140Z,12.36
2022-09-24T15:42:06.825Z,12.02
2022-09-24T15:47:32.498Z,11.64
2022-09-24T15:52:59.841Z,11.43
2022-09-24T15:58:26.892Z,11.06
2022-09-24T16:03:54.334Z,10.44
2022-09-24T16:09:18.340Z,10.12
2022-09-24T16:14:42.507Z,10.21
2022-09-24T16:20:09.936Z,9.96
2022-09-24T16:25:34.518Z,9.99
2022-09-24T16:30:58.915Z,9.92
2022-09-24T16:36:25.143Z,10.05
2022-09-24T16:41:50.453Z,10.06
2022-09-24T16:47:16.461Z,10.03
2022-09-24T16:52:44.865Z,9.85
2022-09-24T16:58:11.224Z,9.87
2022-09-24T17:03:36.298Z,9.97
2022-09-24T17:09:19.353Z,9.97
2022-09-24T17:14:44.139Z,10.00
2022-09-24T17:20:10.281Z,9.86
2022-09-24T17:25:36.702Z,9.77
2022-09-24T17:31:01.632Z,9.80
2022-09-24T17:36:27.311Z,9.73
2022-09-24T17:41:52.891Z,9.82
2022-09-24T17:47:17.682Z,9.77
2022-09-24T17:52:42.696Z,9.69
2022-09-24T17:58:08.473Z,9.78
2022-09-24T18:03:32.975Z,9.71
2022-09-24T18:08:58.121Z,9.69
2022-09-24T18:14:24.464Z,9.74
2022-09-24T18:19:48.720Z,9.81
2022-09-24T18:25:14.207Z,9.78
2022-09-24T18:30:39.694Z,9.75
2022-09-24T18:36:06.130Z,9.69
2022-09-24T18:41:32.328Z,9.53
2022-09-24T18:46:57.822Z,9.57
2022-09-24T18:52:22.096Z,9.59
2022-09-24T18:57:46.896Z,9.54
2022-09-24T19:03:13.116Z,9.55
2022-09-24T19:08:37.919Z,9.49
2022-09-24T19:14:03.215Z,9.47
2022-09-24T19:19:29.643Z,9.44
2022-09-24T19:24:53.949Z,9.44
2022-09-24T19:30:19.953Z,9.41
2022-09-24T19:35:54.373Z,9.38
2022-09-24T19:41:22.845Z,9.36
2022-09-24T19:46:47.661Z,9.37
2022-09-24T19:52:13.579Z,9.30
2022-09-24T19:57:40.152Z,9.28
2022-09-24T20:03:05.225Z,9.27
2022-09-24T20:08:31.329Z,9.29
2022-09-24T20:13:57.888Z,9.30
2022-09-24T20:19:23.543Z,9.35
2022-09-24T20:24:49.733Z,9.43
2022-09-24T20:30:16.171Z,9.37
2022-09-24T20:35:42.219Z,9.27
2022-09-24T20:41:09.980Z,9.19
2022-09-24T20:46:34.485Z,9.21
2022-09-24T20:51:59.022Z,9.13
2022-09-24T20:57:25.368Z,8.99
2022-09-24T21:02:51.260Z,8.93
2022-09-24T21:08:16.741Z,8.94
2022-09-24T21:13:45.756Z,8.92
2022-09-24T21:19:09.731Z,8.96
2022-09-24T21:24:36.013Z,8.99
2022-09-24T21:30:01.873Z,8.96
2022-09-24T21:35:27.232Z,8.94
2022-09-24T21:40:54.668Z,8.91
2022-09-24T21:46:20.813Z,8.88
2022-09-24T21:51:46.225Z,8.77
2022-09-24T21:57:10.972Z,8.76
2022-09-24T22:02:41.183Z,8.77
2022-09-24T22:08:11.799Z,8.76
2022-09-24T22:13:38.096Z,8.69
2022-09-24T22:19:05.024Z,8.71
2022-09-24T22:24:30.457Z,8.73
2022-09-24T22:29:58.105Z,8.76
2022-09-24T22:35:43.459Z,8.81
2022-09-24T22:41:12.135Z,8.84
2022-09-24T22:46:41.377Z,8.93
2022-09-24T22:52:07.597Z,8.97
2022-09-24T22:57:34.400Z,9.00
2022-09-24T23:02:58.936Z,8.97
2022-09-24T23:08:25.560Z,8.94
2022-09-24T23:13:54.974Z,8.86
2022-09-24T23:19:21.390Z,8.85
2022-09-24T23:24:47.479Z,8.76
2022-09-24T23:30:12.704Z,8.69
2022-09-24T23:35:38.422Z,8.65
2022-09-24T23:41:05.467Z,8.61
2022-09-24T23:46:30.591Z,8.54
2022-09-24T23:51:55.769Z,8.49
2022-09-24T23:57:20.827Z,8.47
